Time;durP1;ratioP1;P1;durP2;ratioP2;P2;SDS_P1;SDS_P2;PMS_P1;PMS_P2;Temp;Humidity;BMP_temperature;BMP_pressure;BME280_temperature;BME280_humidity;BME280_pressure;Samples;Min_cycle;Max_cycle;Signal;HPM_P1;HPM_P2
2022/12/21 00:02:03;;;;;;;44.85;20.60;;;;;;;;;;5144959;27;20055;-69
2022/12/21 00:04:30;;;;;;;48.30;21.48;;;;;;;;;;5142855;27;20548;-69
2022/12/21 00:06:57;;;;;;;45.90;19.65;;;;;;;;;;5144842;27;20738;-69
2022/12/21 00:09:23;;;;;;;45.60;20.00;;;;;;;;;;5144728;27;20773;-68
2022/12/21 00:11:49;;;;;;;42.22;20.88;;;;;;;;;;5146440;27;20505;-69
2022/12/21 00:14:16;;;;;;;45.10;21.40;;;;;;;;;;5144768;27;20058;-68
2022/12/21 00:16:42;;;;;;;43.35;20.30;;;;;;;;;;5144785;27;20100;-68
2022/12/21 00:19:14;;;;;;;47.22;20.17;;;;;;;;;;5139769;27;20146;-68
2022/12/21 00:21:41;;;;;;;42.67;19.23;;;;;;;;;;5145085;27;20112;-69
2022/12/21 00:24:07;;;;;;;36.00;18.67;;;;;;;;;;5140204;27;20047;-69
2022/12/21 00:26:35;;;;;;;40.95;18.23;;;;;;;;;;5145437;27;20104;-69
2022/12/21 00:29:02;;;;;;;47.00;20.05;;;;;;;;;;5143914;27;20079;-69
2022/12/21 00:31:30;;;;;;;37.05;18.15;;;;;;;;;;5143212;27;20055;-69
2022/12/21 00:33:57;;;;;;;45.05;19.38;;;;;;;;;;5134976;27;20051;-69
2022/12/21 00:36:24;;;;;;;34.25;17.45;;;;;;;;;;5128172;27;20036;-68
2022/12/21 00:38:50;;;;;;;42.25;19.10;;;;;;;;;;5142653;27;20109;-69
2022/12/21 00:41:19;;;;;;;40.67;19.15;;;;;;;;;;5142239;27;20050;-69
2022/12/21 00:43:46;;;;;;;38.65;18.50;;;;;;;;;;5142156;27;20501;-67
2022/12/21 00:46:19;;;;;;;38.13;18.23;;;;;;;;;;5143268;27;20050;-67
2022/12/21 00:48:46;;;;;;;38.10;18.85;;;;;;;;;;5144940;27;20059;-68
2022/12/21 00:51:19;;;;;;;39.47;17.92;;;;;;;;;;5143571;27;20502;-68
2022/12/21 00:53:46;;;;;;;36.83;17.75;;;;;;;;;;5143448;27;20043;-68
2022/12/21 00:56:13;;;;;;;39.95;18.45;;;;;;;;;;5144321;27;20047;-68
2022/12/21 00:58:40;;;;;;;35.13;18.80;;;;;;;;;;5124677;27;20055;-68
2022/12/21 01:01:08;;;;;;;35.08;15.82;;;;;;;;;;5124034;27;20523;-68
2022/12/21 01:03:34;;;;;;;39.78;16.60;;;;;;;;;;5124172;27;20055;-69
2022/12/21 01:06:01;;;;;;;36.08;16.55;;;;;;;;;;5131874;27;20051;-69
2022/12/21 01:08:27;;;;;;;33.33;15.98;;;;;;;;;;5144682;27;20139;-68
2022/12/21 01:10:57;;;;;;;38.53;16.15;;;;;;;;;;5144079;27;20656;-68
2022/12/21 01:13:24;;;;;;;33.17;16.23;;;;;;;;;;5144268;27;20051;-68
2022/12/21 01:15:50;;;;;;;40.25;15.90;;;;;;;;;;5143496;27;20539;-68
2022/12/21 01:18:16;;;;;;;32.58;15.75;;;;;;;;;;5145847;27;20059;-68
2022/12/21 01:20:47;;;;;;;32.53;14.68;;;;;;;;;;5163290;27;20793;-68
2022/12/21 01:23:15;;;;;;;30.42;14.80;;;;;;;;;;5156094;27;20367;-68
2022/12/21 01:25:42;;;;;;;34.63;16.73;;;;;;;;;;5163218;27;20051;-68
2022/12/21 01:28:09;;;;;;;32.38;15.50;;;;;;;;;;5163754;27;20113;-68
2022/12/21 01:30:35;;;;;;;31.10;15.20;;;;;;;;;;5163816;27;20058;-69
2022/12/21 01:33:01;;;;;;;32.40;16.83;;;;;;;;;;5163552;27;20468;-68
2022/12/21 01:35:28;;;;;;;35.47;17.23;;;;;;;;;;5162933;27;20057;-67
2022/12/21 01:37:54;;;;;;;43.63;16.48;;;;;;;;;;5162819;27;20568;-68
2022/12/21 01:40:20;;;;;;;34.45;16.10;;;;;;;;;;5162232;27;20058;-68
2022/12/21 01:42:47;;;;;;;33.47;15.45;;;;;;;;;;5166088;27;20516;-67
2022/12/21 01:45:19;;;;;;;30.42;16.13;;;;;;;;;;5166595;27;20507;-68
2022/12/21 01:47:45;;;;;;;34.10;15.95;;;;;;;;;;5168353;27;20054;-67
2022/12/21 01:50:23;;;;;;;35.70;16.13;;;;;;;;;;5165670;27;20158;-68
2022/12/21 01:52:51;;;;;;;35.53;15.48;;;;;;;;;;5166132;27;20072;-68
2022/12/21 01:55:17;;;;;;;33.47;13.95;;;;;;;;;;5165975;27;20050;-68
2022/12/21 01:57:44;;;;;;;37.60;14.93;;;;;;;;;;5167756;27;20050;-68
2022/12/21 02:00:10;;;;;;;30.10;13.68;;;;;;;;;;5168541;27;20058;-68
2022/12/21 02:02:39;;;;;;;31.13;13.95;;;;;;;;;;5166124;27;20600;-68
2022/12/21 02:05:11;;;;;;;27.30;13.00;;;;;;;;;;5168638;27;20053;-68
2022/12/21 02:07:38;;;;;;;32.88;13.90;;;;;;;;;;5168284;27;20053;-69
2022/12/21 02:10:05;;;;;;;29.75;13.43;;;;;;;;;;5166678;27;20057;-67
2022/12/21 02:12:31;;;;;;;33.80;14.35;;;;;;;;;;5166539;27;20093;-68
2022/12/21 02:14:58;;;;;;;25.10;12.55;;;;;;;;;;5167792;27;20070;-68
2022/12/21 02:17:33;;;;;;;33.78;13.85;;;;;;;;;;5166820;27;20054;-68
2022/12/21 02:19:59;;;;;;;;;;;;;;;;;;5168327;27;20639;-68
2022/12/21 02:22:26;;;;;;;;;;;;;;;;;;5166164;27;46013;-68
2022/12/21 02:25:00;;;;;;;28.77;12.63;;;;;;;;;;5166159;27;44692;-69
2022/12/21 02:27:35;;;;;;;28.20;13.18;;;;;;;;;;5163915;27;20081;-68
2022/12/21 02:30:04;;;;;;;26.27;12.93;;;;;;;;;;5148064;27;20484;-68
2022/12/21 02:32:34;;;;;;;33.00;13.27;;;;;;;;;;5164608;27;20043;-68
2022/12/21 02:35:13;;;;;;;28.50;13.00;;;;;;;;;;5167003;27;20124;-68
2022/12/21 02:37:58;;;;;;;38.17;13.93;;;;;;;;;;5167772;27;20046;-69
2022/12/21 02:40:32;;;;;;;27.23;12.00;;;;;;;;;;5148906;27;20055;-69
2022/12/21 02:45:52;;;;;;;27.27;11.88;;;;;;;;;;5165867;27;20057;-68
2022/12/21 02:48:23;;;;;;;29.83;12.07;;;;;;;;;;5166126;27;20059;-68
2022/12/21 02:50:51;;;;;;;25.50;11.65;;;;;;;;;;5165059;27;20046;-67
2022/12/21 02:53:20;;;;;;;18.38;10.27;;;;;;;;;;5164402;27;20042;-68
2022/12/21 02:55:46;;;;;;;22.02;11.27;;;;;;;;;;5165951;27;20051;-67
2022/12/21 02:58:15;;;;;;;27.55;12.02;;;;;;;;;;5164137;27;20542;-68
2022/12/21 03:01:02;;;;;;;25.75;11.35;;;;;;;;;;5166641;27;20046;-68
2022/12/21 03:03:49;;;;;;;34.33;11.63;;;;;;;;;;5166255;27;20043;-68
2022/12/21 03:06:16;;;;;;;29.15;11.48;;;;;;;;;;5166193;27;20051;-68
2022/12/21 03:09:01;;;;;;;30.98;12.05;;;;;;;;;;5165798;27;20552;-68
2022/12/21 03:11:34;;;;;;;25.25;10.85;;;;;;;;;;5146293;27;20458;-68
2022/12/21 03:14:13;;;;;;;31.42;11.57;;;;;;;;;;5166285;27;20062;-69
2022/12/21 03:16:48;;;;;;;30.63;10.35;;;;;;;;;;5166112;27;20055;-68
2022/12/21 03:19:14;;;;;;;25.73;10.73;;;;;;;;;;5166714;27;20055;-68
2022/12/21 03:21:49;;;;;;;22.85;9.85;;;;;;;;;;5166457;27;20515;-68
2022/12/21 03:24:34;;;;;;;25.55;11.48;;;;;;;;;;5166112;27;20046;-68
2022/12/21 03:27:30;;;;;;;28.50;11.55;;;;;;;;;;5164103;27;20051;-67
2022/12/21 03:30:00;;;;;;;25.70;11.07;;;;;;;;;;5142218;27;20046;-68
2022/12/21 03:32:34;;;;;;;24.67;11.43;;;;;;;;;;5164430;27;20046;-69
2022/12/21 03:35:01;;;;;;;31.23;12.90;;;;;;;;;;5165889;27;20103;-68
2022/12/21 03:37:30;;;;;;;29.10;12.40;;;;;;;;;;5165480;27;20043;-68
2022/12/21 03:40:03;;;;;;;24.15;12.52;;;;;;;;;;5147380;27;20058;-67
2022/12/21 03:42:33;;;;;;;27.02;13.57;;;;;;;;;;5165832;27;20055;-68
2022/12/21 03:45:01;;;;;;;36.65;13.15;;;;;;;;;;5165580;27;20054;-68
2022/12/21 03:47:32;;;;;;;26.30;12.57;;;;;;;;;;5162532;27;20476;-68
2022/12/21 03:50:00;;;;;;;30.08;13.48;;;;;;;;;;5166581;27;20058;-68
2022/12/21 03:52:34;;;;;;;31.50;14.18;;;;;;;;;;5164411;27;20088;-68
2022/12/21 03:55:06;;;;;;;35.70;14.57;;;;;;;;;;5166516;27;20151;-69
2022/12/21 03:57:33;;;;;;;29.02;13.98;;;;;;;;;;5166153;27;20050;-68
2022/12/21 04:00:00;;;;;;;34.88;13.27;;;;;;;;;;5164861;27;20883;-68
2022/12/21 04:02:53;;;;;;;30.35;14.02;;;;;;;;;;5163495;27;20103;-68
2022/12/21 04:05:21;;;;;;;28.38;12.77;;;;;;;;;;5164769;27;20054;-68
2022/12/21 04:07:49;;;;;;;30.80;15.65;;;;;;;;;;5165730;27;20051;-68
2022/12/21 04:10:17;;;;;;;35.85;14.98;;;;;;;;;;5163656;27;20051;-68
2022/12/21 04:12:46;;;;;;;32.65;15.07;;;;;;;;;;5166059;27;20505;-68
2022/12/21 04:15:14;;;;;;;36.95;16.15;;;;;;;;;;5164071;27;20796;-68
2022/12/21 04:17:42;;;;;;;35.75;15.68;;;;;;;;;;5164803;27;20047;-68
2022/12/21 04:20:10;;;;;;;33.80;15.65;;;;;;;;;;5147559;27;20055;-68
2022/12/21 04:28:28;;;;;;;40.63;17.42;;;;;;;;;;5165128;27;20084;-68
2022/12/21 04:31:14;;;;;;;36.95;17.77;;;;;;;;;;5164222;27;20075;-68
2022/12/21 04:33:41;;;;;;;38.25;18.65;;;;;;;;;;5164814;27;20043;-67
2022/12/21 04:38:52;;;;;;;37.80;18.37;;;;;;;;;;5165876;27;20054;-68
2022/12/21 04:41:19;;;;;;;38.13;18.20;;;;;;;;;;5164116;27;20051;-67
2022/12/21 04:43:45;;;;;;;36.35;17.08;;;;;;;;;;5164627;27;20519;-67
2022/12/21 04:46:13;;;;;;;36.28;18.38;;;;;;;;;;5165120;27;20050;-68
2022/12/21 04:48:40;;;;;;;43.65;18.92;;;;;;;;;;5164741;27;20100;-68
2022/12/21 04:51:08;;;;;;;47.03;20.08;;;;;;;;;;5157891;27;20057;-68
2022/12/21 04:53:34;;;;;;;40.88;18.98;;;;;;;;;;5164553;27;20046;-68
2022/12/21 04:56:01;;;;;;;39.80;19.27;;;;;;;;;;5165499;27;20047;-68
2022/12/21 04:58:27;;;;;;;43.55;19.48;;;;;;;;;;5164587;27;20053;-68
2022/12/21 05:00:53;;;;;;;41.03;20.08;;;;;;;;;;5163369;27;20504;-68
2022/12/21 05:03:20;;;;;;;46.05;20.17;;;;;;;;;;5162114;27;20149;-68
2022/12/21 05:05:46;;;;;;;44.28;19.00;;;;;;;;;;5157607;27;20043;-68
2022/12/21 05:08:13;;;;;;;53.80;21.08;;;;;;;;;;5157323;27;20601;-68
2022/12/21 05:10:47;;;;;;;60.22;22.90;;;;;;;;;;5164185;27;20046;-68
2022/12/21 05:13:13;;;;;;;55.97;21.98;;;;;;;;;;5163063;27;20062;-68
2022/12/21 05:15:39;;;;;;;67.32;22.38;;;;;;;;;;5163435;27;20050;-68
2022/12/21 05:18:06;;;;;;;66.18;22.77;;;;;;;;;;5160761;27;20054;-67
2022/12/21 05:20:32;;;;;;;62.88;22.02;;;;;;;;;;5164175;27;20602;-67
2022/12/21 05:22:58;;;;;;;63.40;21.27;;;;;;;;;;5158626;27;20038;-69
2022/12/21 05:25:24;;;;;;;62.65;22.40;;;;;;;;;;5161900;27;20042;-68
2022/12/21 05:27:51;;;;;;;65.90;21.23;;;;;;;;;;5160653;27;20082;-67
2022/12/21 05:30:18;;;;;;;82.38;22.67;;;;;;;;;;5161208;27;20809;-68
2022/12/21 05:32:44;;;;;;;67.72;21.13;;;;;;;;;;5162071;27;20134;-70
2022/12/21 05:35:11;;;;;;;91.85;25.05;;;;;;;;;;5157812;27;20658;-66
2022/12/21 05:37:42;;;;;;;79.40;22.92;;;;;;;;;;5153703;27;20046;-69
2022/12/21 05:40:09;;;;;;;98.22;26.77;;;;;;;;;;5164095;27;20047;-67
2022/12/21 05:42:35;;;;;;;69.53;24.08;;;;;;;;;;5160283;27;20611;-69
2022/12/21 05:45:01;;;;;;;84.90;25.45;;;;;;;;;;5162020;27;20086;-69
2022/12/21 05:47:28;;;;;;;76.40;25.35;;;;;;;;;;5164232;27;20055;-68
2022/12/21 05:49:54;;;;;;;82.65;24.73;;;;;;;;;;5164697;27;20058;-68
2022/12/21 05:52:20;;;;;;;77.10;27.58;;;;;;;;;;5143395;27;20063;-67
2022/12/21 05:54:47;;;;;;;66.32;24.23;;;;;;;;;;5156545;27;20500;-67
2022/12/21 05:57:13;;;;;;;74.95;26.05;;;;;;;;;;5160210;27;20051;-69
2022/12/21 05:59:39;;;;;;;68.05;25.05;;;;;;;;;;5164344;27;20524;-70
2022/12/21 06:02:06;;;;;;;75.95;26.60;;;;;;;;;;5162200;27;20058;-69
2022/12/21 06:04:32;;;;;;;62.03;22.98;;;;;;;;;;5162631;27;20053;-69
2022/12/21 06:06:59;;;;;;;84.60;25.20;;;;;;;;;;5163435;27;20215;-68
2022/12/21 06:09:25;;;;;;;82.00;26.05;;;;;;;;;;5162231;27;20051;-70
2022/12/21 06:11:51;;;;;;;78.90;25.58;;;;;;;;;;5162181;27;20054;-69
2022/12/21 06:14:18;;;;;;;65.50;23.85;;;;;;;;;;5164434;27;20135;-69
2022/12/21 06:16:45;;;;;;;83.85;27.08;;;;;;;;;;5160655;27;20595;-69
2022/12/21 06:19:11;;;;;;;82.07;27.15;;;;;;;;;;5163528;27;20051;-69
2022/12/21 06:21:38;;;;;;;90.72;28.75;;;;;;;;;;5162983;27;20082;-69
2022/12/21 06:24:04;;;;;;;70.80;28.05;;;;;;;;;;5163905;27;20134;-69
2022/12/21 06:26:31;;;;;;;87.47;26.52;;;;;;;;;;5162458;27;20474;-69
2022/12/21 06:28:57;;;;;;;83.22;27.75;;;;;;;;;;5167649;27;20046;-69
2022/12/21 06:31:23;;;;;;;92.35;28.15;;;;;;;;;;5165277;27;20059;-69
2022/12/21 06:33:50;;;;;;;119.90;30.58;;;;;;;;;;5166633;27;20061;-69
2022/12/21 06:36:16;;;;;;;89.57;28.25;;;;;;;;;;5166709;27;20054;-69
2022/12/21 06:38:42;;;;;;;100.43;28.50;;;;;;;;;;5168487;27;20403;-69
2022/12/21 06:41:11;;;;;;;99.07;29.13;;;;;;;;;;5161232;27;20424;-71
2022/12/21 06:43:40;;;;;;;91.13;28.60;;;;;;;;;;5158871;27;20051;-69
2022/12/21 06:46:08;;;;;;;93.93;29.77;;;;;;;;;;5157134;27;20160;-69
2022/12/21 06:48:35;;;;;;;77.47;24.52;;;;;;;;;;5158445;27;20093;-69
2022/12/21 06:51:06;;;;;;;85.32;24.85;;;;;;;;;;5153117;27;20435;-69
2022/12/21 06:53:34;;;;;;;81.03;27.55;;;;;;;;;;5152094;27;20141;-68
2022/12/21 06:56:12;;;;;;;102.18;29.50;;;;;;;;;;5156519;27;20120;-69
2022/12/21 06:58:45;;;;;;;97.97;26.95;;;;;;;;;;5163852;27;20148;-68
2022/12/21 07:01:13;;;;;;;80.15;26.27;;;;;;;;;;5155387;27;20058;-69
2022/12/21 07:03:40;;;;;;;85.82;28.25;;;;;;;;;;5167519;27;20047;-68
2022/12/21 07:06:11;;;;;;;89.05;30.08;;;;;;;;;;5166310;27;20595;-69
2022/12/21 07:08:38;;;;;;;86.65;28.42;;;;;;;;;;5166768;27;20587;-67
2022/12/21 07:11:06;;;;;;;87.43;28.70;;;;;;;;;;5164262;27;20054;-69
2022/12/21 07:13:36;;;;;;;87.80;29.25;;;;;;;;;;5158643;27;20236;-69
2022/12/21 07:16:03;;;;;;;94.00;31.60;;;;;;;;;;5149256;27;20523;-69
2022/12/21 07:18:30;;;;;;;76.35;29.48;;;;;;;;;;5146142;27;20055;-69
2022/12/21 07:20:57;;;;;;;84.25;31.10;;;;;;;;;;5155614;27;20053;-68
2022/12/21 07:23:26;;;;;;;79.10;28.80;;;;;;;;;;5166159;27;20089;-68
2022/12/21 07:25:53;;;;;;;83.00;31.15;;;;;;;;;;5152536;27;20047;-70
2022/12/21 07:28:22;;;;;;;82.57;31.25;;;;;;;;;;5156231;27;20133;-69
2022/12/21 07:30:49;;;;;;;82.25;30.17;;;;;;;;;;5163663;27;20050;-69
2022/12/21 07:33:15;;;;;;;84.22;31.42;;;;;;;;;;5159185;27;20517;-69
2022/12/21 07:35:42;;;;;;;70.57;28.42;;;;;;;;;;5152869;27;20046;-69
2022/12/21 07:38:08;;;;;;;77.75;29.88;;;;;;;;;;5164967;27;20817;-69
2022/12/21 07:40:35;;;;;;;83.10;32.30;;;;;;;;;;5164893;27;20051;-69
2022/12/21 07:43:05;;;;;;;82.85;31.27;;;;;;;;;;5157194;27;20047;-69
2022/12/21 07:45:32;;;;;;;82.35;32.15;;;;;;;;;;5150393;27;20469;-67
2022/12/21 07:47:58;;;;;;;70.40;30.77;;;;;;;;;;5148231;27;20200;-68
2022/12/21 07:50:24;;;;;;;68.72;30.45;;;;;;;;;;5165747;27;20059;-68
2022/12/21 07:52:52;;;;;;;71.75;29.52;;;;;;;;;;5160987;27;20054;-67
2022/12/21 07:55:18;;;;;;;71.93;30.70;;;;;;;;;;5155926;27;20046;-68
2022/12/21 07:57:45;;;;;;;77.85;31.42;;;;;;;;;;5164378;27;20579;-68
2022/12/21 08:00:11;;;;;;;71.95;32.05;;;;;;;;;;5166274;27;20492;-69
2022/12/21 08:02:38;;;;;;;71.72;29.50;;;;;;;;;;5157418;27;20512;-69
2022/12/21 08:05:04;;;;;;;72.60;30.20;;;;;;;;;;5148963;27;20096;-68
2022/12/21 08:07:31;;;;;;;70.53;31.58;;;;;;;;;;5139570;27;20620;-69
2022/12/21 08:09:57;;;;;;;63.88;30.17;;;;;;;;;;5155572;27;20441;-68
2022/12/21 08:12:23;;;;;;;66.72;29.33;;;;;;;;;;5166003;27;20067;-70
2022/12/21 08:14:50;;;;;;;70.35;29.42;;;;;;;;;;5163929;27;20562;-70
2022/12/21 08:17:22;;;;;;;75.45;30.13;;;;;;;;;;5149589;27;20066;-70
2022/12/21 08:19:49;;;;;;;59.38;27.58;;;;;;;;;;5149156;27;20058;-70
2022/12/21 08:22:15;;;;;;;67.72;28.52;;;;;;;;;;5154118;27;20051;-69
2022/12/21 08:24:42;;;;;;;58.78;26.50;;;;;;;;;;5159875;27;20057;-69
2022/12/21 08:27:08;;;;;;;67.15;27.98;;;;;;;;;;5151535;27;20161;-70
2022/12/21 08:29:34;;;;;;;54.28;26.05;;;;;;;;;;5149994;27;20039;-69
2022/12/21 08:32:00;;;;;;;57.40;27.15;;;;;;;;;;5154963;27;20115;-70
2022/12/21 08:34:27;;;;;;;49.13;25.73;;;;;;;;;;5164103;27;20704;-69
2022/12/21 08:36:53;;;;;;;67.13;25.63;;;;;;;;;;5157996;27;20471;-69
2022/12/21 08:39:20;;;;;;;54.90;26.67;;;;;;;;;;5164989;27;20051;-70
2022/12/21 08:41:46;;;;;;;60.45;26.63;;;;;;;;;;5158524;27;20051;-69
2022/12/21 08:44:12;;;;;;;62.33;28.60;;;;;;;;;;5158320;27;20610;-69
2022/12/21 08:46:39;;;;;;;59.00;25.98;;;;;;;;;;5152757;27;20138;-69
2022/12/21 08:49:05;;;;;;;54.75;26.15;;;;;;;;;;5156173;27;20039;-70
2022/12/21 08:51:32;;;;;;;43.88;25.55;;;;;;;;;;5143829;27;20126;-69
2022/12/21 08:53:58;;;;;;;50.03;26.38;;;;;;;;;;5164008;27;20111;-69
2022/12/21 08:56:24;;;;;;;54.00;26.15;;;;;;;;;;5163495;27;20057;-69
2022/12/21 08:58:51;;;;;;;54.10;27.17;;;;;;;;;;5163455;27;20055;-70
2022/12/21 09:01:18;;;;;;;57.47;26.58;;;;;;;;;;5162769;27;20051;-69
2022/12/21 09:03:45;;;;;;;54.35;27.23;;;;;;;;;;5159539;27;20050;-70
2022/12/21 09:06:12;;;;;;;49.45;25.45;;;;;;;;;;5151000;27;20055;-69
2022/12/21 09:08:39;;;;;;;57.72;27.88;;;;;;;;;;5161647;27;20058;-68
2022/12/21 09:11:09;;;;;;;52.50;26.65;;;;;;;;;;5161361;27;20563;-68
2022/12/21 09:13:36;;;;;;;51.45;26.65;;;;;;;;;;5145005;27;20059;-68
2022/12/21 09:16:10;;;;;;;47.42;25.48;;;;;;;;;;5153278;27;20039;-69
2022/12/21 09:18:36;;;;;;;53.17;26.23;;;;;;;;;;5157374;27;20877;-69
2022/12/21 09:21:03;;;;;;;56.03;28.13;;;;;;;;;;5157652;27;20530;-70
2022/12/21 09:23:29;;;;;;;48.90;25.35;;;;;;;;;;5153760;27;20051;-69
2022/12/21 09:25:56;;;;;;;49.97;26.15;;;;;;;;;;5148374;27;20590;-70
2022/12/21 09:28:22;;;;;;;58.17;25.65;;;;;;;;;;5157063;27;20054;-69
2022/12/21 09:30:49;;;;;;;53.20;25.35;;;;;;;;;;5144411;27;20130;-70
2022/12/21 09:33:15;;;;;;;51.58;25.38;;;;;;;;;;5142185;27;20054;-70
2022/12/21 09:35:41;;;;;;;57.22;26.30;;;;;;;;;;5162049;27;20055;-69
2022/12/21 09:38:08;;;;;;;49.53;25.30;;;;;;;;;;5157015;27;20047;-69
2022/12/21 09:40:34;;;;;;;51.42;26.08;;;;;;;;;;5161546;27;20099;-69
2022/12/21 09:43:04;;;;;;;55.42;26.27;;;;;;;;;;5161378;27;20047;-69
2022/12/21 09:45:49;;;;;;;50.08;25.13;;;;;;;;;;5163305;27;20492;-69
2022/12/21 09:48:18;;;;;;;51.92;24.20;;;;;;;;;;5161426;27;20559;-69
2022/12/21 09:50:54;;;;;;;51.50;24.25;;;;;;;;;;5162016;27;20046;-69
2022/12/21 09:53:26;;;;;;;62.25;29.08;;;;;;;;;;5161780;27;20122;-68
2022/12/21 09:55:53;;;;;;;59.50;26.98;;;;;;;;;;5161809;27;20051;-69
2022/12/21 09:58:22;;;;;;;61.05;28.63;;;;;;;;;;5143536;27;20086;-70
2022/12/21 10:00:51;;;;;;;67.45;30.60;;;;;;;;;;5141618;27;20047;-70
2022/12/21 10:03:27;;;;;;;61.10;28.25;;;;;;;;;;5146067;27;20057;-70
2022/12/21 10:06:06;;;;;;;57.20;26.95;;;;;;;;;;5158129;27;20050;-69
2022/12/21 10:08:38;;;;;;;54.75;26.30;;;;;;;;;;5159678;27;20551;-70
2022/12/21 10:11:12;;;;;;;49.75;25.77;;;;;;;;;;5157043;27;20244;-70
2022/12/21 10:13:41;;;;;;;49.05;26.05;;;;;;;;;;5162797;27;20054;-69
2022/12/21 10:16:12;;;;;;;50.42;25.38;;;;;;;;;;5162560;27;20535;-69
2022/12/21 10:18:48;;;;;;;46.88;25.33;;;;;;;;;;5163142;27;20520;-69
2022/12/21 10:21:29;;;;;;;52.72;26.88;;;;;;;;;;5163409;27;20047;-69
2022/12/21 10:23:56;;;;;;;43.15;25.90;;;;;;;;;;5157269;27;20407;-68
2022/12/21 10:26:25;;;;;;;46.25;24.20;;;;;;;;;;5166675;27;20900;-66
2022/12/21 10:28:54;;;;;;;46.90;21.17;;;;;;;;;;5159702;27;20054;-67
2022/12/21 10:31:24;;;;;;;45.35;21.25;;;;;;;;;;5144599;27;20062;-67
2022/12/21 10:33:51;;;;;;;40.75;21.88;;;;;;;;;;5146557;27;20100;-67
2022/12/21 10:36:20;;;;;;;38.15;21.42;;;;;;;;;;5155855;27;20472;-66
2022/12/21 10:38:47;;;;;;;37.85;19.38;;;;;;;;;;5155837;27;20066;-66
2022/12/21 10:41:16;;;;;;;36.00;17.70;;;;;;;;;;5152290;27;20079;-66
2022/12/21 10:43:44;;;;;;;33.83;16.15;;;;;;;;;;5146838;27;20055;-67
2022/12/21 10:46:11;;;;;;;33.20;17.08;;;;;;;;;;5147112;27;20085;-67
2022/12/21 10:48:37;;;;;;;27.40;15.32;;;;;;;;;;5167472;27;20519;-67
2022/12/21 10:51:23;;;;;;;29.45;17.40;;;;;;;;;;5165537;27;20043;-66
2022/12/21 10:54:03;;;;;;;32.15;16.17;;;;;;;;;;5166535;27;20043;-67
2022/12/21 10:56:30;;;;;;;29.08;15.80;;;;;;;;;;5166888;27;20540;-67
2022/12/21 10:59:00;;;;;;;30.27;16.50;;;;;;;;;;5165711;27;20046;-67
2022/12/21 11:01:27;;;;;;;30.38;17.33;;;;;;;;;;5165499;27;20103;-68
2022/12/21 11:04:07;;;;;;;29.48;16.13;;;;;;;;;;5156433;27;20101;-68
2022/12/21 11:06:33;;;;;;;35.78;16.42;;;;;;;;;;5143798;27;20043;-66
2022/12/21 11:09:00;;;;;;;31.42;16.23;;;;;;;;;;5145906;27;20055;-67
2022/12/21 11:11:31;;;;;;;35.47;16.33;;;;;;;;;;5155202;27;20048;-67
2022/12/21 11:14:14;;;;;;;33.17;16.77;;;;;;;;;;5159773;27;20534;-67
2022/12/21 11:16:41;;;;;;;31.48;16.50;;;;;;;;;;5163115;27;20058;-66
2022/12/21 11:19:11;;;;;;;39.45;18.25;;;;;;;;;;5163404;27;20062;-68
2022/12/21 11:21:43;;;;;;;37.15;18.13;;;;;;;;;;5155852;27;20515;-67
2022/12/21 11:24:28;;;;;;;35.20;19.38;;;;;;;;;;5158044;27;20058;-67
2022/12/21 11:27:21;;;;;;;34.10;19.23;;;;;;;;;;5153149;27;20047;-66
2022/12/21 11:29:50;;;;;;;33.45;19.85;;;;;;;;;;5134068;27;20621;-66
2022/12/21 11:32:17;;;;;;;38.92;22.17;;;;;;;;;;5160237;27;20140;-67
2022/12/21 11:34:51;;;;;;;42.33;22.85;;;;;;;;;;5165702;27;20039;-68
2022/12/21 11:37:36;;;;;;;40.37;23.30;;;;;;;;;;5161224;27;20051;-67
2022/12/21 11:40:20;;;;;;;42.53;23.38;;;;;;;;;;5163173;27;20791;-67
2022/12/21 11:42:53;;;;;;;44.95;22.45;;;;;;;;;;5165255;27;20089;-67
2022/12/21 11:45:24;;;;;;;45.17;24.02;;;;;;;;;;5165889;27;20055;-67
2022/12/21 11:47:57;;;;;;;45.50;22.75;;;;;;;;;;5161110;27;20048;-67
2022/12/21 11:50:29;;;;;;;47.67;28.48;;;;;;;;;;5159616;27;20051;-68
2022/12/21 11:53:14;;;;;;;48.28;27.25;;;;;;;;;;5154255;27;20078;-68
2022/12/21 11:55:47;;;;;;;47.25;26.10;;;;;;;;;;5165303;27;20055;-66
2022/12/21 11:58:13;;;;;;;44.33;23.08;;;;;;;;;;5144696;27;20579;-68
2022/12/21 12:00:51;;;;;;;45.80;23.60;;;;;;;;;;5148969;27;20043;-68
2022/12/21 12:03:32;;;;;;;44.38;23.63;;;;;;;;;;5164786;27;20139;-68
2022/12/21 12:05:58;;;;;;;36.35;21.15;;;;;;;;;;5146498;27;20146;-67
2022/12/21 12:08:36;;;;;;;38.33;21.48;;;;;;;;;;5153720;27;20555;-67
2022/12/21 12:11:02;;;;;;;36.35;21.55;;;;;;;;;;5153847;27;20054;-67
2022/12/21 12:13:45;;;;;;;35.72;21.73;;;;;;;;;;5159130;27;20563;-67
2022/12/21 12:16:16;;;;;;;37.60;22.45;;;;;;;;;;5156402;27;20121;-68
2022/12/21 12:18:55;;;;;;;42.83;25.17;;;;;;;;;;5138476;27;20142;-68
2022/12/21 12:21:30;;;;;;;46.70;23.73;;;;;;;;;;5163462;27;20543;-67
2022/12/21 12:24:15;;;;;;;36.43;23.17;;;;;;;;;;5163259;27;20051;-68
2022/12/21 12:26:51;;;;;;;42.25;21.85;;;;;;;;;;5148108;27;20085;-67
2022/12/21 12:29:20;;;;;;;39.28;20.02;;;;;;;;;;5151044;27;20131;-68
2022/12/21 12:32:07;;;;;;;38.92;20.92;;;;;;;;;;5161264;27;20072;-68
2022/12/21 12:34:58;;;;;;;41.42;21.65;;;;;;;;;;5159574;27;20062;-68
2022/12/21 12:37:36;;;;;;;33.08;19.23;;;;;;;;;;5162434;27;20701;-68
2022/12/21 12:40:05;;;;;;;40.55;21.40;;;;;;;;;;5156821;27;20051;-69
2022/12/21 12:42:43;;;;;;;34.40;18.45;;;;;;;;;;5155456;27;20055;-68
2022/12/21 12:45:09;;;;;;;32.40;17.35;;;;;;;;;;5144829;27;20082;-68
2022/12/21 12:47:46;;;;;;;31.25;19.08;;;;;;;;;;5157135;27;20074;-68
2022/12/21 12:50:18;;;;;;;38.50;19.65;;;;;;;;;;5163301;27;20689;-68
2022/12/21 12:52:51;;;;;;;30.95;18.90;;;;;;;;;;5165098;27;20039;-68
2022/12/21 12:55:20;;;;;;;43.17;20.92;;;;;;;;;;5163645;27;20543;-68
2022/12/21 12:57:57;;;;;;;37.42;19.65;;;;;;;;;;5164542;27;20785;-68
2022/12/21 13:00:23;;;;;;;37.38;21.45;;;;;;;;;;5161891;27;20519;-68
2022/12/21 13:03:09;;;;;;;37.53;19.73;;;;;;;;;;5161310;27;20059;-68
2022/12/21 13:05:38;;;;;;;34.22;20.23;;;;;;;;;;5149422;27;20082;-69
2022/12/21 13:08:07;;;;;;;36.75;19.75;;;;;;;;;;5157108;27;20457;-69
2022/12/21 13:10:52;;;;;;;43.60;21.52;;;;;;;;;;5156652;27;20535;-69
2022/12/21 13:13:27;;;;;;;37.10;20.80;;;;;;;;;;5155743;27;20408;-68
2022/12/21 13:15:55;;;;;;;42.53;20.88;;;;;;;;;;5165090;27;20496;-69
2022/12/21 13:18:42;;;;;;;36.67;18.25;;;;;;;;;;5159351;27;20112;-70
2022/12/21 13:21:10;;;;;;;31.33;18.67;;;;;;;;;;5145617;27;20111;-70
2022/12/21 13:23:36;;;;;;;33.45;17.90;;;;;;;;;;5160963;27;20054;-67
2022/12/21 13:26:08;;;;;;;30.42;16.90;;;;;;;;;;5160191;27;20104;-68
2022/12/21 13:28:38;;;;;;;35.88;19.20;;;;;;;;;;5143944;27;20051;-68
2022/12/21 13:31:09;;;;;;;31.38;17.08;;;;;;;;;;5156465;27;20047;-68
2022/12/21 13:33:40;;;;;;;27.63;16.98;;;;;;;;;;5153426;27;20114;-68
2022/12/21 13:36:08;;;;;;;33.97;16.23;;;;;;;;;;5163297;27;20120;-68
2022/12/21 13:38:48;;;;;;;31.52;14.93;;;;;;;;;;5166548;27;20054;-68
2022/12/21 13:41:21;;;;;;;28.88;14.77;;;;;;;;;;5147515;27;20489;-68
2022/12/21 13:44:01;;;;;;;24.27;14.25;;;;;;;;;;5151360;27;20099;-68
2022/12/21 13:46:46;;;;;;;33.03;14.88;;;;;;;;;;5160769;27;20050;-68
2022/12/21 13:49:24;;;;;;;24.30;14.23;;;;;;;;;;5162427;27;20079;-68
2022/12/21 13:51:53;;;;;;;21.45;12.75;;;;;;;;;;5164163;27;20130;-68
2022/12/21 13:54:23;;;;;;;26.52;14.25;;;;;;;;;;5143958;27;20046;-68
2022/12/21 13:57:08;;;;;;;26.80;14.02;;;;;;;;;;5159030;27;20058;-68
2022/12/21 13:59:41;;;;;;;28.50;13.55;;;;;;;;;;5166388;27;20047;-68
2022/12/21 14:02:25;;;;;;;21.60;13.93;;;;;;;;;;5157812;27;20047;-67
2022/12/21 14:04:53;;;;;;;28.77;15.05;;;;;;;;;;5150638;27;20145;-68
2022/12/21 14:07:42;;;;;;;27.13;13.13;;;;;;;;;;5158106;27;20514;-67
2022/12/21 14:10:27;;;;;;;22.50;14.20;;;;;;;;;;5157103;27;20043;-67
2022/12/21 14:13:00;;;;;;;25.52;14.57;;;;;;;;;;5162952;27;20582;-67
2022/12/21 14:15:38;;;;;;;25.83;14.75;;;;;;;;;;5165152;27;20592;-68
2022/12/21 14:18:10;;;;;;;33.35;15.43;;;;;;;;;;5133457;27;20043;-68
2022/12/21 14:20:38;;;;;;;26.83;16.00;;;;;;;;;;5148961;27;20138;-66
2022/12/21 14:23:36;;;;;;;29.23;14.93;;;;;;;;;;5159362;27;20688;-69
2022/12/21 14:26:03;;;;;;;32.63;15.45;;;;;;;;;;5116045;27;20141;-69
2022/12/21 14:28:42;;;;;;;28.70;15.02;;;;;;;;;;5161022;27;20442;-70
2022/12/21 14:31:08;;;;;;;22.40;14.93;;;;;;;;;;5155853;27;20508;-69
2022/12/21 14:33:51;;;;;;;22.40;14.90;;;;;;;;;;5160990;27;20409;-69
2022/12/21 14:36:38;;;;;;;28.48;16.67;;;;;;;;;;5151618;27;20121;-68
2022/12/21 14:39:08;;;;;;;24.80;14.65;;;;;;;;;;5161635;27;20050;-71
2022/12/21 14:41:44;;;;;;;31.77;16.65;;;;;;;;;;5157892;27;20516;-71
2022/12/21 14:44:30;;;;;;;34.85;15.65;;;;;;;;;;5161739;27;20528;-69
2022/12/21 14:47:09;;;;;;;36.58;18.38;;;;;;;;;;5165440;27;20046;-72
2022/12/21 14:49:36;;;;;;;29.10;16.85;;;;;;;;;;5160806;27;20532;-72